Time;durP1;ratioP1;P1;durP2;ratioP2;P2;SDS_P1;SDS_P2;PMS_P1;PMS_P2;Temp;Humidity;BMP_temperature;BMP_pressure;BME280_temperature;BME280_humidity;BME280_pressure;Samples;Min_cycle;Max_cycle;Signal;HPM_P1;HPM_P2
2023/02/28 00:00:31;;;;;;;5.50;1.97;;;-3.40;1.00;;;-0.86;94.31;96156.00;4968612;28;20298;-68
2023/02/28 00:02:58;;;;;;;2.33;1.73;;;-3.40;1.00;;;-0.87;93.51;96149.94;4972484;28;20216;-68
2023/02/28 00:05:28;;;;;;;4.20;2.00;;;-3.50;1.00;;;-0.92;93.85;96161.91;4964528;28;20953;-68
2023/02/28 00:07:55;;;;;;;3.60;1.70;;;-3.50;1.00;;;-1.06;95.36;96152.22;4968230;28;20239;-68
2023/02/28 00:10:26;;;;;;;3.30;1.60;;;-3.50;1.00;;;-1.08;96.37;96156.00;4970199;28;20228;-68
2023/02/28 00:12:56;;;;;;;2.30;1.57;;;-3.60;1.00;;;-1.04;96.18;96158.09;4973105;28;20615;-68
2023/02/28 00:15:24;;;;;;;3.03;1.70;;;-3.60;1.00;;;-1.07;96.07;96151.41;4959623;28;20213;-68
2023/02/28 00:17:51;;;;;;;3.77;1.90;;;-3.60;1.00;;;-1.08;96.90;96156.00;4965767;28;20243;-68
2023/02/28 00:20:19;;;;;;;2.13;1.50;;;-3.60;1.00;;;-0.97;96.42;96149.34;4964331;28;20259;-69
2023/02/28 00:22:50;;;;;;;2.73;1.60;;;-3.60;1.00;;;-1.03;96.75;96146.63;4967707;28;20267;-68
2023/02/28 00:25:19;;;;;;;1.90;1.40;;;-3.50;1.00;;;-1.02;97.33;96150.06;4969696;28;20267;-68
2023/02/28 00:27:48;;;;;;;3.00;1.90;;;-3.60;1.00;;;-1.06;98.42;96150.41;4963929;28;20208;-68
2023/02/28 00:30:19;;;;;;;2.13;1.70;;;-3.60;1.00;;;-1.01;99.29;96145.47;4964644;28;20725;-68
2023/02/28 00:32:46;;;;;;;3.17;1.97;;;-3.70;1.00;;;-0.99;98.97;96150.53;4968235;28;20229;-68
2023/02/28 00:35:13;;;;;;;4.23;1.90;;;-3.70;1.00;;;-1.12;99.17;96145.88;4967104;28;20220;-68
2023/02/28 00:37:40;;;;;;;3.00;1.40;;;-3.70;1.00;;;-1.14;100.00;96136.56;4965088;28;20712;-68
2023/02/28 00:40:10;;;;;;;3.23;1.40;;;-3.70;1.00;;;-1.08;100.00;96140.31;4968177;28;20220;-68
2023/02/28 00:42:37;;;;;;;4.17;1.80;;;-3.80;1.00;;;-1.08;100.00;96144.53;4963162;28;20580;-69
2023/02/28 00:45:07;;;;;;;2.87;1.93;;;-3.80;1.00;;;-1.23;100.00;96142.84;4965480;28;20208;-68
2023/02/28 00:47:34;;;;;;;3.30;1.60;;;-3.80;1.00;;;-1.16;100.00;96147.19;4958921;28;20205;-68
2023/02/28 00:50:01;;;;;;;2.97;1.70;;;-3.80;1.00;;;-1.22;100.00;96147.91;4970515;28;20220;-68
2023/02/28 00:52:28;;;;;;;2.30;1.50;;;-3.80;1.00;;;-1.23;100.00;96142.84;4966796;28;20279;-68
2023/02/28 00:54:55;;;;;;;3.07;1.63;;;-3.80;1.00;;;-1.16;100.00;96131.50;4967633;28;20216;-69
2023/02/28 00:57:21;;;;;;;3.13;1.63;;;-3.80;1.00;;;-1.28;100.00;96139.94;4962885;28;20235;-68
2023/02/28 00:59:48;;;;;;;2.30;1.40;;;-3.90;1.00;;;-1.26;100.00;96133.53;4966676;28;20298;-68
2023/02/28 01:02:17;;;;;;;2.17;1.50;;;-3.90;1.00;;;-1.43;100.00;96131.19;4970559;28;20251;-68
2023/02/28 01:04:44;;;;;;;3.67;1.60;;;-3.90;1.00;;;-1.28;100.00;96132.09;4964808;28;20236;-68
2023/02/28 01:07:11;;;;;;;3.13;1.40;;;-3.90;1.00;;;-1.28;100.00;96129.47;4966590;28;20220;-68
2023/02/28 01:09:38;;;;;;;3.13;1.70;;;-3.90;1.00;;;-1.33;100.00;96136.22;4965443;28;20264;-68
2023/02/28 01:12:05;;;;;;;9.23;1.83;;;-4.00;1.00;;;-1.41;100.00;96134.47;4966928;28;20270;-68
2023/02/28 01:14:32;;;;;;;2.87;1.70;;;-3.90;1.00;;;-2.14;100.00;96135.78;4962000;28;20287;-69
2023/02/28 01:16:59;;;;;;;3.70;1.70;;;-3.90;1.00;;;-2.28;100.00;96126.06;4971157;28;20530;-68
2023/02/28 01:19:27;;;;;;;2.87;1.70;;;-3.90;1.00;;;-2.32;100.00;96119.53;4967990;28;20641;-68
2023/02/28 01:21:54;;;;;;;5.30;2.07;;;-3.90;1.00;;;-2.42;100.00;96124.94;4962685;28;20212;-68
2023/02/28 01:24:20;;;;;;;2.60;1.57;;;-4.00;1.00;;;-2.40;100.00;96121.38;4965913;28;20283;-69
2023/02/28 01:26:47;;;;;;;1.87;1.30;;;-4.00;1.00;;;-2.32;100.00;96127.38;4966108;28;20216;-69
2023/02/28 01:29:14;;;;;;;4.03;1.90;;;-4.00;1.00;;;-2.39;100.00;96126.41;4968431;28;20220;-69
2023/02/28 01:31:41;;;;;;;3.33;1.70;;;-4.00;1.00;;;-2.40;100.00;96129.22;4972307;28;20271;-68
2023/02/28 01:34:07;;;;;;;3.40;1.70;;;-4.00;1.00;;;-2.38;100.00;96135.06;4960627;28;20233;-69
2023/02/28 01:36:36;;;;;;;2.10;1.70;;;-4.00;1.00;;;-2.42;100.00;96132.78;4961251;28;20208;-68
2023/02/28 01:39:04;;;;;;;4.07;2.53;;;-4.00;1.00;;;-2.44;100.00;96130.50;4970572;28;20271;-69
2023/02/28 01:41:34;;;;;;;3.67;2.03;;;-4.10;1.00;;;-2.42;100.00;96136.38;4970295;28;20208;-68
2023/02/28 01:44:05;;;;;;;3.07;1.90;;;-4.10;1.00;;;-2.41;100.00;96136.22;4961363;28;20216;-68
2023/02/28 01:46:34;;;;;;;4.90;2.03;;;-4.10;1.00;;;-2.43;100.00;96132.97;4958407;28;20205;-68
2023/02/28 01:49:08;;;;;;;2.80;1.80;;;-4.00;1.00;;;-2.40;100.00;96130.00;4967298;28;20266;-69
2023/02/28 01:51:45;;;;;;;7.40;2.20;;;-4.00;1.00;;;-2.42;100.00;96122.31;4970529;28;20255;-68
2023/02/28 01:54:17;;;;;;;2.97;2.03;;;-4.10;1.00;;;-2.47;100.00;96127.22;4965107;28;20223;-69
2023/02/28 01:56:49;;;;;;;3.50;2.20;;;-4.20;1.00;;;-2.48;100.00;96116.97;4966686;28;20259;-69
2023/02/28 01:59:23;;;;;;;3.03;2.10;;;-4.10;1.00;;;-2.50;100.00;96118.94;4970764;28;20690;-68
2023/02/28 02:01:50;;;;;;;4.10;1.70;;;-4.10;1.00;;;-2.49;100.00;96111.91;4962947;28;20237;-68
2023/02/28 02:04:17;;;;;;;5.83;2.27;;;-4.10;1.00;;;-2.53;100.00;96114.84;4962456;28;20240;-69
2023/02/28 02:06:48;;;;;;;5.57;2.40;;;-4.20;1.00;;;-2.52;100.00;96111.25;4966916;28;20336;-68
2023/02/28 02:09:15;;;;;;;6.77;2.83;;;-4.10;1.00;;;-2.53;100.00;96107.03;4964474;28;20290;-68
2023/02/28 02:11:44;;;;;;;4.40;2.10;;;-4.10;1.00;;;-2.57;100.00;96113.56;4969437;28;20278;-69
2023/02/28 02:14:42;;;;;;;3.37;2.30;;;-4.20;1.00;;;-2.53;100.00;96109.63;4964072;28;20232;-69
2023/02/28 02:17:22;;;;;;;3.20;2.03;;;-4.20;1.00;;;-2.62;100.00;96109.84;4961860;28;20267;-68
2023/02/28 02:20:34;;;;;;;4.23;2.43;;;-4.20;1.00;;;-2.59;100.00;96098.25;4964580;28;20662;-69
2023/02/28 02:23:35;;;;;;;5.57;2.60;;;-4.20;1.00;;;-2.57;100.00;96102.31;4966531;28;20200;-68
2023/02/28 02:26:39;;;;;;;3.63;2.20;;;-4.20;1.00;;;-2.53;100.00;96094.97;4961910;28;20655;-69
2023/02/28 02:29:39;;;;;;;5.27;2.60;;;-4.20;1.00;;;-2.53;100.00;96100.19;4952695;28;20208;-68
2023/02/28 02:32:37;;;;;;;4.70;2.70;;;-4.20;1.00;;;-2.57;100.00;96097.88;4963270;28;20212;-68
2023/02/28 02:35:16;;;;;;;3.93;2.67;;;-4.30;1.00;;;-2.60;100.00;96091.41;4962841;28;20304;-69
2023/02/28 02:37:49;;;;;;;4.77;2.13;;;-4.30;1.00;;;-2.60;100.00;96096.63;4969684;28;20204;-69
2023/02/28 02:40:20;;;;;;;4.53;2.90;;;-4.30;1.00;;;-2.62;100.00;96097.56;4966896;28;20640;-68
2023/02/28 02:42:56;;;;;;;3.77;2.17;;;-4.30;1.00;;;-2.59;100.00;96090.41;4966432;28;20206;-69
2023/02/28 02:45:28;;;;;;;5.13;2.70;;;-4.30;1.00;;;-2.52;100.00;96098.19;4965389;28;20226;-69
2023/02/28 02:47:57;;;;;;;4.07;2.60;;;-4.30;1.00;;;-2.52;100.00;96095.59;4963586;28;20323;-68
2023/02/28 02:50:32;;;;;;;7.13;2.60;;;-4.30;1.00;;;-2.64;100.00;96097.94;4963842;28;20260;-69
2023/02/28 02:53:03;;;;;;;4.47;2.60;;;-4.30;1.00;;;-2.58;100.00;96102.47;4966111;28;20700;-69
2023/02/28 02:55:34;;;;;;;3.93;2.50;;;-4.30;1.00;;;-2.53;100.00;96094.97;4956475;28;20631;-69
2023/02/28 02:58:05;;;;;;;5.67;2.50;;;-4.30;1.00;;;-2.51;100.00;96093.81;4971374;28;20212;-68
2023/02/28 03:00:36;;;;;;;3.93;2.93;;;-4.30;1.00;;;-2.50;100.00;96097.25;4964844;28;20245;-68
2023/02/28 03:03:04;;;;;;;5.57;2.87;;;-4.30;1.00;;;-2.50;100.00;96100.66;4964356;28;20210;-69
2023/02/28 03:05:39;;;;;;;5.50;2.90;;;-4.30;1.00;;;-2.55;100.00;96102.16;4958244;28;20216;-69
2023/02/28 03:08:07;;;;;;;4.50;2.83;;;-4.30;1.00;;;-2.57;100.00;96104.94;4964380;28;20208;-68
2023/02/28 03:10:38;;;;;;;4.53;2.63;;;-4.30;1.00;;;-2.54;100.00;96098.56;4963633;28;20637;-68
2023/02/28 03:13:28;;;;;;;9.00;2.90;;;-4.30;1.00;;;-2.50;100.00;96102.47;4963915;28;20239;-68
2023/02/28 03:16:11;;;;;;;6.43;2.70;;;-4.30;1.00;;;-2.67;100.00;96100.84;4967063;28;20560;-68
2023/02/28 03:18:48;;;;;;;4.87;3.03;;;-4.30;1.00;;;-2.57;100.00;96092.66;4963711;28;20208;-69
2023/02/28 03:21:24;;;;;;;3.63;2.67;;;-4.30;1.00;;;-2.53;100.00;96101.81;4967176;28;20682;-69
2023/02/28 03:23:59;;;;;;;3.67;2.60;;;-4.30;1.00;;;-2.54;100.00;96094.13;4970671;28;20249;-68
2023/02/28 03:26:28;;;;;;;4.20;2.83;;;-4.40;1.00;;;-2.63;100.00;96093.34;4967237;28;20254;-69
2023/02/28 03:29:05;;;;;;;3.70;2.67;;;-4.40;1.00;;;-2.64;100.00;96092.69;4968914;28;20201;-69
2023/02/28 03:31:37;;;;;;;4.63;2.53;;;-4.40;1.00;;;-2.62;100.00;96088.94;4969256;28;20214;-68
2023/02/28 03:34:08;;;;;;;4.60;3.13;;;-4.40;1.00;;;-2.59;100.00;96099.03;4966634;28;20248;-68
2023/02/28 03:36:45;;;;;;;4.83;2.80;;;-4.40;1.00;;;-2.59;100.00;96093.81;4964811;28;20212;-68
2023/02/28 03:39:17;;;;;;;4.67;2.53;;;-4.40;1.00;;;-2.56;100.00;96090.88;4972391;28;20303;-68
2023/02/28 03:41:50;;;;;;;4.60;2.70;;;-4.40;1.00;;;-2.55;100.00;96084.69;4971496;28;20231;-68
2023/02/28 03:44:23;;;;;;;4.23;2.77;;;-4.40;1.00;;;-2.58;100.00;96088.44;4970128;28;20214;-69
2023/02/28 03:46:57;;;;;;;7.80;2.77;;;-4.40;1.00;;;-2.60;100.00;96092.19;4972205;28;20252;-69
2023/02/28 03:49:29;;;;;;;4.10;3.07;;;-4.40;1.00;;;-2.50;100.00;96086.81;4972343;28;20296;-68
2023/02/28 03:52:03;;;;;;;5.10;3.20;;;-4.40;1.00;;;-2.45;100.00;96092.34;4968994;28;20209;-69
2023/02/28 03:54:36;;;;;;;6.57;3.30;;;-4.30;1.00;;;-2.52;100.00;96089.56;4969879;28;20243;-68
2023/02/28 03:57:10;;;;;;;4.30;3.07;;;-4.40;1.00;;;-2.52;100.00;96084.34;4972172;28;20271;-69
2023/02/28 03:59:41;;;;;;;6.93;3.57;;;-4.40;1.00;;;-2.60;100.00;96089.59;4965288;28;20208;-68
2023/02/28 04:02:08;;;;;;;4.27;3.43;;;-4.40;1.00;;;-2.54;100.00;96093.34;4967971;28;20212;-69
2023/02/28 04:04:35;;;;;;;5.07;2.80;;;-4.40;1.00;;;-2.62;100.00;96099.38;4963247;28;20217;-68
2023/02/28 04:07:06;;;;;;;5.90;3.00;;;-4.40;1.00;;;-2.55;100.00;96095.13;4969559;28;20288;-68
2023/02/28 04:09:33;;;;;;;3.90;2.90;;;-4.40;1.00;;;-2.52;100.00;96100.00;4971355;28;20208;-68
2023/02/28 04:12:00;;;;;;;4.07;2.93;;;-4.40;1.00;;;-2.50;100.00;96092.03;4969758;28;20209;-68
2023/02/28 04:14:27;;;;;;;8.93;3.90;;;-4.30;1.00;;;-2.44;100.00;96092.16;4966588;28;20617;-68
2023/02/28 04:16:54;;;;;;;5.23;3.57;;;-4.30;1.00;;;-2.43;100.00;96088.56;4965048;28;20650;-69
2023/02/28 04:19:21;;;;;;;4.50;3.07;;;-4.30;1.00;;;-2.37;100.00;96096.53;4969243;28;20209;-69
2023/02/28 04:21:50;;;;;;;9.87;3.43;;;-4.30;1.00;;;-2.40;100.00;96090.03;4967058;28;20798;-68
2023/02/28 04:24:22;;;;;;;7.03;3.33;;;-4.20;1.00;;;-2.42;100.00;96091.00;4967762;28;20352;-68
2023/02/28 04:26:53;;;;;;;4.53;3.50;;;-4.30;1.00;;;-2.35;100.00;96091.16;4973844;28;20212;-69
2023/02/28 04:29:23;;;;;;;7.30;3.60;;;-4.30;1.00;;;-2.53;100.00;96088.75;4971594;28;20292;-68
2023/02/28 04:31:49;;;;;;;6.30;3.67;;;-4.30;1.00;;;-2.41;100.00;96086.59;4969860;28;20268;-68
2023/02/28 04:34:18;;;;;;;4.60;3.50;;;-4.30;1.00;;;-2.53;100.00;96080.91;4971815;28;20761;-68
2023/02/28 04:36:45;;;;;;;5.73;3.70;;;-4.30;1.00;;;-2.45;100.00;96084.50;4968183;28;20239;-69
2023/02/28 04:39:12;;;;;;;5.37;3.63;;;-4.30;1.00;;;-2.36;100.00;96079.06;4966533;28;20220;-68
2023/02/28 04:41:41;;;;;;;4.87;3.40;;;-4.30;1.00;;;-2.47;100.00;96088.06;4970081;28;20279;-68
2023/02/28 04:44:08;;;;;;;7.20;3.47;;;-4.30;1.00;;;-2.36;100.00;96081.69;4967491;28;20208;-68
2023/02/28 04:46:34;;;;;;;6.70;4.03;;;-4.30;1.00;;;-2.28;100.00;96086.06;4970565;28;20213;-68
2023/02/28 04:49:01;;;;;;;6.00;3.80;;;-4.20;1.00;;;-2.20;100.00;96073.00;4972697;28;20278;-68
2023/02/28 04:51:28;;;;;;;5.63;3.93;;;-4.20;1.00;;;-2.25;100.00;96077.91;4969292;28;20216;-68
2023/02/28 04:53:55;;;;;;;5.37;3.97;;;-4.10;1.00;;;-2.26;100.00;96079.69;4966761;28;20231;-68
2023/02/28 04:56:23;;;;;;;5.50;3.70;;;-4.10;1.00;;;-2.19;100.00;96074.59;4969164;28;20210;-68
2023/02/28 04:58:52;;;;;;;6.43;4.17;;;-4.10;1.00;;;-2.17;100.00;96078.69;4970769;28;20212;-69
2023/02/28 05:01:23;;;;;;;6.30;3.80;;;-4.10;1.00;;;-2.22;100.00;96074.94;4965778;28;20236;-69
2023/02/28 05:03:52;;;;;;;9.37;3.90;;;-4.10;1.00;;;-2.12;100.00;96090.22;4973550;28;20248;-68
2023/02/28 05:06:21;;;;;;;6.30;4.43;;;-4.10;1.00;;;-2.11;100.00;96084.00;4963219;28;20228;-68
2023/02/28 05:08:48;;;;;;;5.13;3.67;;;-4.10;1.00;;;-2.16;100.00;96090.75;4966973;28;20631;-69
2023/02/28 05:11:18;;;;;;;5.23;3.70;;;-4.10;1.00;;;-2.23;100.00;96089.81;4963426;28;20279;-68
2023/02/28 05:13:45;;;;;;;6.13;3.70;;;-4.20;1.00;;;-2.27;100.00;96097.16;4968265;28;20236;-69
2023/02/28 05:16:14;;;;;;;5.73;4.00;;;-4.20;1.00;;;-2.23;100.00;96095.03;4966052;28;20219;-68
2023/02/28 05:18:41;;;;;;;5.50;3.40;;;-4.20;1.00;;;-2.20;100.00;96091.28;4964840;28;20643;-68
2023/02/28 05:21:26;;;;;;;5.20;3.53;;;-4.20;1.00;;;-2.26;100.00;96100.59;4965594;28;20287;-69
2023/02/28 05:23:53;;;;;;;9.60;4.30;;;-4.10;1.00;;;-2.19;100.00;96092.91;4969031;28;20268;-69
2023/02/28 05:26:21;;;;;;;11.20;4.70;;;-4.10;1.00;;;-2.17;100.00;96095.16;4962767;28;20204;-69
2023/02/28 05:28:47;;;;;;;14.93;5.70;;;-4.10;1.00;;;-2.07;100.00;96094.97;4972038;28;20622;-68
2023/02/28 05:31:16;;;;;;;6.40;4.13;;;-4.10;1.00;;;-2.08;100.00;96094.13;4966527;28;20691;-72
2023/02/28 05:33:43;;;;;;;10.40;4.97;;;-4.10;1.00;;;-2.03;100.00;96093.63;4963649;28;20737;-69
2023/02/28 05:36:10;;;;;;;8.83;5.43;;;-4.00;1.00;;;-2.03;100.00;96089.22;4965284;28;20215;-69
2023/02/28 05:38:36;;;;;;;4.70;3.07;;;-4.00;1.00;;;-2.17;100.00;96101.38;4970795;28;20622;-68
2023/02/28 05:41:07;;;;;;;7.93;4.60;;;-4.00;1.00;;;-2.06;100.00;96097.38;4967070;28;20216;-68
2023/02/28 05:43:35;;;;;;;9.47;4.60;;;-4.00;1.00;;;-2.09;100.00;96086.47;4965786;28;20239;-69
2023/02/28 05:46:05;;;;;;;8.73;4.23;;;-4.00;1.00;;;-1.98;100.00;96093.13;4964720;28;20212;-70
2023/02/28 05:48:34;;;;;;;8.90;4.60;;;-4.00;1.00;;;-1.95;100.00;96096.19;4965544;28;20315;-69
2023/02/28 05:51:01;;;;;;;5.97;4.20;;;-4.00;1.00;;;-2.04;100.00;96099.03;4970820;28;20209;-69
2023/02/28 05:53:28;;;;;;;7.17;4.63;;;-4.00;1.00;;;-1.97;100.00;96098.19;4968175;28;20332;-68
2023/02/28 05:55:54;;;;;;;7.50;4.33;;;-4.00;1.00;;;-1.84;100.00;96089.78;4961680;28;20287;-68
2023/02/28 05:58:22;;;;;;;6.97;4.23;;;-3.90;1.00;;;-1.89;100.00;96092.91;4967169;28;20720;-68
2023/02/28 06:00:49;;;;;;;7.50;4.53;;;-3.80;1.00;;;-2.02;100.00;96090.84;4966378;28;20311;-69
2023/02/28 06:03:16;;;;;;;6.13;4.00;;;-3.90;1.00;;;-2.02;100.00;96090.84;4969287;28;20208;-68
2023/02/28 06:05:44;;;;;;;7.20;4.67;;;-3.90;1.00;;;-1.91;100.00;96081.81;4968521;28;20683;-69
2023/02/28 06:08:11;;;;;;;6.67;4.77;;;-3.90;1.00;;;-1.97;100.00;96088.53;4965386;28;20970;-69
2023/02/28 06:10:37;;;;;;;7.43;4.73;;;-3.90;1.00;;;-1.91;100.00;96089.66;4962765;28;20267;-68
2023/02/28 06:13:05;;;;;;;7.23;4.50;;;-3.90;1.00;;;-1.87;100.00;96089.13;4967315;28;20212;-67
2023/02/28 06:15:33;;;;;;;5.20;4.40;;;-3.80;1.00;;;-1.86;100.00;96098.59;4965335;28;20231;-67
2023/02/28 06:18:00;;;;;;;7.77;4.77;;;-3.80;1.00;;;-1.86;100.00;96093.38;4953160;28;20267;-68
2023/02/28 06:20:29;;;;;;;7.73;4.97;;;-3.80;1.00;;;-1.77;100.00;96102.00;4964791;28;20264;-68
2023/02/28 06:22:58;;;;;;;6.47;4.60;;;-3.80;1.00;;;-1.79;100.00;96100.56;4963389;28;20268;-77
2023/02/28 06:25:25;;;;;;;10.10;4.87;;;-3.80;1.00;;;-1.88;100.00;96111.03;4964209;28;20199;-74
2023/02/28 06:27:52;;;;;;;6.33;4.47;;;-3.80;1.00;;;-1.77;100.00;96111.63;4966925;28;20270;-72
2023/02/28 06:30:26;;;;;;;8.47;5.03;;;-3.80;1.00;;;-1.73;100.00;96117.16;4963872;28;20279;-68
2023/02/28 06:32:53;;;;;;;8.93;4.90;;;-3.70;1.00;;;-1.66;100.00;96115.47;4970128;28;20321;-70
2023/02/28 06:35:20;;;;;;;9.87;5.37;;;-3.70;1.00;;;-1.72;100.00;96113.56;4965811;28;20634;-69
2023/02/28 06:37:47;;;;;;;8.30;5.10;;;-3.70;1.00;;;-1.82;100.00;96126.03;4962754;28;20216;-74
2023/02/28 06:40:16;;;;;;;7.13;5.07;;;-3.70;1.00;;;-1.77;100.00;96116.88;4962457;28;20209;-66
2023/02/28 06:42:43;;;;;;;8.20;5.57;;;-3.70;1.00;;;-1.72;100.00;96110.94;4967926;28;21050;-67
2023/02/28 06:45:11;;;;;;;8.73;4.83;;;-3.70;1.00;;;-1.76;100.00;96119.31;4963077;28;20212;-67
2023/02/28 06:47:40;;;;;;;8.07;5.20;;;-3.70;1.00;;;-1.72;100.00;96126.63;4959744;28;20216;-66
2023/02/28 06:50:10;;;;;;;11.97;5.70;;;-3.70;1.00;;;-1.64;100.00;96124.97;4964358;28;20726;-66
2023/02/28 06:52:37;;;;;;;24.77;11.80;;;-3.70;1.00;;;-1.66;100.00;96131.16;4964299;28;20209;-67
2023/02/28 06:55:05;;;;;;;8.70;5.70;;;-3.60;1.00;;;-1.70;100.00;96134.31;4960423;28;20691;-66
2023/02/28 06:57:35;;;;;;;9.63;5.30;;;-3.60;1.00;;;-1.66;100.00;96131.16;4962303;28;20209;-68
2023/02/28 07:00:07;;;;;;;11.63;6.30;;;-3.70;1.00;;;-1.60;100.00;96127.06;4955587;28;20650;-67
2023/02/28 07:02:34;;;;;;;10.10;5.30;;;-3.60;1.00;;;-1.51;100.00;96136.50;4964254;28;20208;-68
2023/02/28 07:05:01;;;;;;;9.63;5.10;;;-3.60;1.00;;;-1.52;100.00;96119.19;4959064;28;20220;-68
2023/02/28 07:07:28;;;;;;;9.83;5.80;;;-3.50;1.00;;;-1.52;100.00;96130.44;4965425;28;20208;-67
2023/02/28 07:09:55;;;;;;;10.90;5.40;;;-3.60;1.00;;;-1.52;100.00;96131.44;4961315;28;20263;-67
2023/02/28 07:12:22;;;;;;;10.33;5.63;;;-3.50;1.00;;;-1.43;100.00;96141.66;4961947;28;20212;-68
2023/02/28 07:14:50;;;;;;;8.97;5.80;;;-3.50;1.00;;;-1.43;100.00;96133.81;4961454;28;20243;-67
2023/02/28 07:17:16;;;;;;;8.87;4.93;;;-3.50;1.00;;;-1.41;100.00;96132.66;4962436;28;20204;-68
2023/02/28 07:19:43;;;;;;;8.70;5.07;;;-3.40;1.00;;;-1.34;100.00;96143.25;4960820;28;20208;-67
2023/02/28 07:22:10;;;;;;;11.17;5.53;;;-3.40;1.00;;;-1.40;100.00;96143.94;4965256;28;20263;-68
2023/02/28 07:24:38;;;;;;;8.10;5.00;;;-3.40;1.00;;;-1.36;100.00;96142.63;4968023;28;20200;-67
2023/02/28 07:27:04;;;;;;;9.87;5.70;;;-3.40;1.00;;;-1.30;100.00;96141.91;4957862;28;20270;-68
2023/02/28 07:29:31;;;;;;;9.83;5.40;;;-3.40;1.00;;;-1.45;100.00;96144.44;4969623;28;20212;-67
2023/02/28 07:31:59;;;;;;;7.13;4.93;;;-3.40;1.00;;;-1.47;100.00;96143.03;4961833;28;20251;-68
2023/02/28 07:34:26;;;;;;;7.63;4.80;;;-3.40;1.00;;;-1.45;100.00;96147.06;4968110;28;20292;-68
2023/02/28 07:36:54;;;;;;;9.37;5.53;;;-3.40;1.00;;;-1.34;100.00;96138.00;4967392;28;20210;-67
2023/02/28 07:39:21;;;;;;;12.37;5.67;;;-3.40;1.00;;;-1.39;100.00;96137.72;4964610;28;20306;-68
2023/02/28 07:41:48;;;;;;;9.50;5.77;;;-3.40;1.00;;;-1.25;100.00;96145.63;4961559;28;20232;-68
2023/02/28 07:44:15;;;;;;;7.47;5.50;;;-3.30;1.00;;;-1.26;100.00;96141.38;4961576;28;20635;-67
2023/02/28 07:46:42;;;;;;;9.90;5.83;;;-3.30;1.00;;;-1.26;100.00;96145.81;4965033;28;20220;-68
2023/02/28 07:49:10;;;;;;;8.87;5.40;;;-3.20;1.00;;;-1.21;100.00;96144.28;4968485;28;20325;-67
2023/02/28 07:51:37;;;;;;;8.17;5.40;;;-3.20;1.00;;;-1.22;100.00;96145.28;4961543;28;20209;-68
2023/02/28 07:54:05;;;;;;;8.53;5.93;;;-3.20;1.00;;;-1.17;100.00;96144.75;4965656;28;20216;-67
2023/02/28 07:56:32;;;;;;;7.67;5.13;;;-3.20;1.00;;;-1.20;100.00;96145.13;4966358;28;20192;-68
2023/02/28 07:58:59;;;;;;;10.97;5.87;;;-3.20;1.00;;;-1.20;100.00;96151.16;4962635;28;20216;-67
2023/02/28 08:01:25;;;;;;;8.57;5.77;;;-3.20;1.00;;;-1.14;100.00;96147.03;4961640;28;20241;-69
2023/02/28 08:03:54;;;;;;;8.77;5.40;;;-3.20;1.00;;;-1.24;100.00;96151.69;4969088;28;20718;-67
2023/02/28 08:06:25;;;;;;;10.27;5.47;;;-3.20;1.00;;;-1.20;100.00;96153.75;4960723;28;20291;-68
2023/02/28 08:08:52;;;;;;;7.67;5.00;;;-3.20;1.00;;;-1.06;100.00;96155.63;4964933;28;20261;-68
2023/02/28 08:11:19;;;;;;;9.93;5.50;;;-3.10;1.00;;;-1.03;100.00;96149.25;4965157;28;20248;-68
2023/02/28 08:13:46;;;;;;;9.43;5.80;;;-3.10;1.00;;;-1.06;100.00;96158.25;4969949;28;20665;-68
2023/02/28 08:16:17;;;;;;;7.70;5.03;;;-3.10;1.00;;;-0.92;100.00;96161.91;4968242;28;20220;-68
2023/02/28 08:18:44;;;;;;;9.03;5.83;;;-3.10;1.00;;;-1.06;100.00;96160.88;4962648;28;20208;-68
2023/02/28 08:21:11;;;;;;;8.73;5.10;;;-3.00;1.00;;;-0.98;100.00;96168.69;4961418;28;20258;-67
2023/02/28 08:23:39;;;;;;;10.33;5.53;;;-3.00;1.00;;;-0.90;100.00;96163.38;4962596;28;20217;-67
2023/02/28 08:26:07;;;;;;;9.57;5.73;;;-3.00;1.00;;;-0.93;100.00;96164.72;4971245;28;20209;-67
2023/02/28 08:28:34;;;;;;;13.83;7.20;;;-3.00;1.00;;;-0.82;100.00;96163.31;4967160;28;20788;-68
2023/02/28 08:31:01;;;;;;;13.43;5.37;;;-2.90;1.00;;;-0.77;100.00;96158.38;4966764;28;20212;-69
2023/02/28 08:33:28;;;;;;;10.13;6.20;;;-2.90;1.00;;;-0.69;100.00;96168.75;4965734;28;20209;-68
2023/02/28 08:35:56;;;;;;;11.37;6.33;;;-2.80;1.00;;;-0.88;100.00;96160.56;4971350;28;20282;-68
2023/02/28 08:38:23;;;;;;;8.53;5.60;;;-2.90;1.00;;;-0.67;100.00;96168.59;4969208;28;20266;-67
2023/02/28 08:40:57;;;;;;;11.10;6.10;;;-2.80;1.00;;;-0.78;100.00;96169.00;4962786;28;20361;-67
2023/02/28 08:43:25;;;;;;;8.97;6.13;;;-2.80;1.00;;;-0.71;100.00;96159.44;4962866;28;20214;-67
2023/02/28 08:45:52;;;;;;;11.50;5.53;;;-2.80;1.00;;;-0.61;100.00;96176.56;4965863;28;20212;-68
2023/02/28 08:48:19;;;;;;;10.60;5.87;;;-2.70;1.00;;;-0.63;100.00;96177.72;4963724;28;20221;-67
2023/02/28 08:50:55;;;;;;;10.73;5.97;;;-2.70;1.00;;;-0.58;100.00;96178.00;4968727;28;20196;-68
2023/02/28 08:53:22;;;;;;;12.60;5.90;;;-2.70;1.00;;;-0.52;100.00;96178.13;4967074;28;20199;-68
2023/02/28 08:55:59;;;;;;;8.63;5.50;;;-2.70;1.00;;;-0.75;100.00;96185.16;4972001;28;20224;-67
2023/02/28 08:58:26;;;;;;;9.53;5.60;;;-2.70;1.00;;;-0.63;100.00;96181.16;4968691;28;20207;-67
2023/02/28 09:00:53;;;;;;;10.23;6.27;;;-2.70;1.00;;;-0.50;100.00;96173.50;4964989;28;20236;-67
2023/02/28 09:03:19;;;;;;;10.17;5.70;;;-2.70;1.00;;;-0.57;100.00;96186.69;4965451;28;20613;-68
2023/02/28 09:05:55;;;;;;;10.73;6.23;;;-2.70;1.00;;;-0.51;100.00;96181.53;4964052;28;20260;-68
2023/02/28 09:08:22;;;;;;;9.33;5.97;;;-2.60;1.00;;;-0.51;100.00;96187.59;4965317;28;20211;-69
2023/02/28 09:10:48;;;;;;;9.87;6.20;;;-2.60;1.00;;;-0.64;100.00;96199.66;4970604;28;20220;-68
2023/02/28 09:13:17;;;;;;;11.20;6.03;;;-2.60;1.00;;;-0.57;100.00;96187.47;4965334;28;20211;-68
2023/02/28 09:15:44;;;;;;;10.10;5.73;;;-2.70;1.00;;;-0.52;100.00;96191.22;4964380;28;20672;-67
2023/02/28 09:18:10;;;;;;;9.90;6.17;;;-2.60;1.00;;;-0.43;100.00;96194.56;4968646;28;20722;-67
2023/02/28 09:20:39;;;;;;;12.47;5.87;;;-2.50;1.00;;;-0.43;100.00;96189.34;4962959;28;20736;-68
2023/02/28 09:23:07;;;;;;;11.87;5.63;;;-2.50;1.00;;;-0.75;100.00;96190.41;4963953;28;20220;-67
2023/02/28 09:25:36;;;;;;;10.50;5.77;;;-2.60;1.00;;;-0.52;100.00;96185.16;4972413;28;20212;-67
2023/02/28 09:28:03;;;;;;;8.17;5.87;;;-2.60;1.00;;;-0.40;100.00;96189.00;4964845;28;20228;-67
2023/02/28 09:30:31;;;;;;;11.80;5.60;;;-2.50;1.00;;;-0.39;100.00;96188.00;4971572;28;20212;-67
2023/02/28 09:32:58;;;;;;;8.03;5.73;;;-2.50;1.00;;;-0.39;100.00;96188.78;4962107;28;20276;-68
2023/02/28 09:35:27;;;;;;;9.57;5.93;;;-2.50;1.00;;;-0.27;100.00;96181.31;4963687;28;20237;-69
2023/02/28 09:37:54;;;;;;;9.83;6.27;;;-2.40;1.00;;;-0.19;100.00;96181.25;4969279;28;20783;-69
2023/02/28 09:40:24;;;;;;;14.37;6.00;;;-2.30;1.00;;;-0.10;100.00;96182.81;4974568;28;20352;-68
2023/02/28 09:42:54;;;;;;;12.13;7.07;;;-2.30;1.00;;;0.01;100.00;96182.34;4966266;28;20219;-68
2023/02/28 09:45:26;;;;;;;10.80;6.30;;;-2.20;1.00;;;-0.01;100.00;96184.31;4965536;28;20286;-68
2023/02/28 09:47:59;;;;;;;13.77;6.10;;;-2.20;1.00;;;-0.17;100.00;96190.56;4972045;28;20208;-68
2023/02/28 09:50:36;;;;;;;9.60;6.23;;;-2.20;1.00;;;0.03;100.00;96189.03;4968329;28;20704;-68
2023/02/28 09:53:11;;;;;;;11.13;6.60;;;-2.20;1.00;;;-0.05;100.00;96196.97;4961740;28;20272;-69
2023/02/28 09:55:43;;;;;;;9.10;6.07;;;-2.20;1.00;;;0.06;100.00;96204.38;4961255;28;20235;-70
2023/02/28 09:58:21;;;;;;;9.23;5.87;;;-2.20;1.00;;;-0.04;100.00;96195.19;4965229;28;20258;-68
2023/02/28 10:00:57;;;;;;;13.73;6.23;;;-2.10;1.00;;;-0.04;100.00;96200.44;4955973;28;20244;-68
2023/02/28 10:03:33;;;;;;;9.93;5.97;;;-2.10;1.00;;;0.04;100.00;96201.16;4962921;28;20216;-69
2023/02/28 10:06:08;;;;;;;10.07;5.87;;;-2.10;1.00;;;0.10;100.00;96200.41;4966570;28;20211;-69
2023/02/28 10:08:42;;;;;;;13.43;6.73;;;-2.10;1.00;;;0.15;100.00;96205.94;4962333;28;20263;-68
2023/02/28 10:11:13;;;;;;;9.73;6.00;;;-2.00;1.00;;;0.17;100.00;96209.19;4963795;28;20251;-68
2023/02/28 10:13:52;;;;;;;12.77;6.70;;;-2.00;1.00;;;0.19;100.00;96206.38;4962789;28;21913;-68
2023/02/28 10:16:27;;;;;;;13.00;6.57;;;-2.00;1.00;;;0.17;100.00;96216.25;4969359;28;20235;-68
2023/02/28 10:19:00;;;;;;;12.70;7.10;;;-2.00;1.00;;;0.23;100.00;96210.28;4958297;28;20212;-68
2023/02/28 10:21:34;;;;;;;11.23;6.70;;;-1.90;1.00;;;0.39;100.00;96216.16;4965996;28;20333;-68
2023/02/28 10:24:14;;;;;;;10.17;6.80;;;-1.90;1.00;;;0.40;100.00;96216.97;4962756;28;20652;-69
2023/02/28 10:26:46;;;;;;;9.73;6.23;;;-1.80;1.00;;;0.55;100.00;96213.34;4964331;28;20208;-68
2023/02/28 10:29:13;;;;;;;11.70;6.07;;;-1.70;1.00;;;0.49;100.00;96216.69;4958767;28;20217;-69